sensor_id;sensor_type;location;lat;lon;timestamp;temperature;humidity
29551;DHT22;16488;52.396;10.696;2022-09-27T00:01:42;11.00;99.90
29551;DHT22;16488;52.396;10.696;2022-09-27T00:04:10;11.00;99.90
29551;DHT22;16488;52.396;10.696;2022-09-27T00:06:35;10.90;99.90
29551;DHT22;16488;52.396;10.696;2022-09-27T00:09:01;11.00;99.90
29551;DHT22;16488;52.396;10.696;2022-09-27T00:11:33;10.90;99.90
29551;DHT22;16488;52.396;10.696;2022-09-27T00:13:59;10.90;99.90
29551;DHT22;16488;52.396;10.696;2022-09-27T00:16:26;10.90;99.90
29551;DHT22;16488;52.396;10.696;2022-09-27T00:18:52;10.90;99.90
29551;DHT22;16488;52.396;10.696;2022-09-27T00:21:18;10.90;99.90
29551;DHT22;16488;52.396;10.696;2022-09-27T00:23:43;10.90;99.90
29551;DHT22;16488;52.396;10.696;2022-09-27T00:26:10;10.80;99.90
29551;DHT22;16488;52.396;10.696;2022-09-27T00:28:35;10.90;99.90
29551;DHT22;16488;52.396;10.696;2022-09-27T00:31:01;10.80;99.90
29551;DHT22;16488;52.396;10.696;2022-09-27T00:33:27;10.80;99.90
29551;DHT22;16488;52.396;10.696;2022-09-27T00:35:52;10.80;99.90
29551;DHT22;16488;52.396;10.696;2022-09-27T00:38:18;10.90;99.90
29551;DHT22;16488;52.396;10.696;2022-09-27T00:40:44;10.90;99.90
29551;DHT22;16488;52.396;10.696;2022-09-27T00:43:18;10.80;99.90
29551;DHT22;16488;52.396;10.696;2022-09-27T00:45:45;10.90;99.90
29551;DHT22;16488;52.396;10.696;2022-09-27T00:48:12;10.80;99.90
29551;DHT22;16488;52.396;10.696;2022-09-27T00:50:41;10.80;99.90
29551;DHT22;16488;52.396;10.696;2022-09-27T00:55:49;10.80;99.90
29551;DHT22;16488;52.396;10.696;2022-09-27T00:58:17;10.80;99.90
29551;DHT22;16488;52.396;10.696;2022-09-27T01:00:44;10.80;99.90
29551;DHT22;16488;52.396;10.696;2022-09-27T01:03:14;10.80;99.90
29551;DHT22;16488;52.396;10.696;2022-09-27T01:05:40;10.80;99.90
29551;DHT22;16488;52.396;10.696;2022-09-27T01:08:05;10.80;99.90
29551;DHT22;16488;52.396;10.696;2022-09-27T01:10:34;10.70;99.90
29551;DHT22;16488;52.396;10.696;2022-09-27T01:13:06;10.80;99.90
29551;DHT22;16488;52.396;10.696;2022-09-27T01:18:22;10.70;99.90
29551;DHT22;16488;52.396;10.696;2022-09-27T01:23:47;10.80;99.90
29551;DHT22;16488;52.396;10.696;2022-09-27T01:34:22;10.70;99.90
29551;DHT22;16488;52.396;10.696;2022-09-27T01:39:37;10.70;99.90
29551;DHT22;16488;52.396;10.696;2022-09-27T01:42:11;10.70;99.90
29551;DHT22;16488;52.396;10.696;2022-09-27T01:44:39;10.70;99.90
29551;DHT22;16488;52.396;10.696;2022-09-27T01:47:09;10.70;99.90
29551;DHT22;16488;52.396;10.696;2022-09-27T01:49:41;10.70;99.90
29551;DHT22;16488;52.396;10.696;2022-09-27T01:52:09;10.70;99.90
29551;DHT22;16488;52.396;10.696;2022-09-27T01:54:41;10.70;99.90
29551;DHT22;16488;52.396;10.696;2022-09-27T01:57:08;10.70;99.90
29551;DHT22;16488;52.396;10.696;2022-09-27T01:59:46;10.70;99.90
29551;DHT22;16488;52.396;10.696;2022-09-27T02:02:14;10.70;99.90
29551;DHT22;16488;52.396;10.696;2022-09-27T02:04:40;10.70;99.90
29551;DHT22;16488;52.396;10.696;2022-09-27T02:07:21;10.70;99.90
29551;DHT22;16488;52.396;10.696;2022-09-27T02:09:52;10.70;99.90
29551;DHT22;16488;52.396;10.696;2022-09-27T02:12:20;10.70;99.90
29551;DHT22;16488;52.396;10.696;2022-09-27T02:19:52;10.70;99.90
29551;DHT22;16488;52.396;10.696;2022-09-27T02:24:55;10.70;99.90
29551;DHT22;16488;52.396;10.696;2022-09-27T02:27:23;10.70;99.90
29551;DHT22;16488;52.396;10.696;2022-09-27T02:29:57;10.70;99.90
29551;DHT22;16488;52.396;10.696;2022-09-27T02:32:23;10.70;99.90
29551;DHT22;16488;52.396;10.696;2022-09-27T02:34:49;10.70;99.90
29551;DHT22;16488;52.396;10.696;2022-09-27T02:37:15;10.70;99.90
29551;DHT22;16488;52.396;10.696;2022-09-27T02:39:40;10.70;99.90
29551;DHT22;16488;52.396;10.696;2022-09-27T02:42:05;10.70;99.90
29551;DHT22;16488;52.396;10.696;2022-09-27T02:44:31;10.70;99.90
29551;DHT22;16488;52.396;10.696;2022-09-27T02:49:39;10.70;99.90
29551;DHT22;16488;52.396;10.696;2022-09-27T02:54:59;10.70;99.90
29551;DHT22;16488;52.396;10.696;2022-09-27T03:00:09;10.70;99.90
29551;DHT22;16488;52.396;10.696;2022-09-27T03:05:28;10.70;99.90
29551;DHT22;16488;52.396;10.696;2022-09-27T03:07:54;10.70;99.90
29551;DHT22;16488;52.396;10.696;2022-09-27T03:10:21;10.60;99.90
29551;DHT22;16488;52.396;10.696;2022-09-27T03:12:47;10.70;99.90
29551;DHT22;16488;52.396;10.696;2022-09-27T03:15:13;10.60;99.90
29551;DHT22;16488;52.396;10.696;2022-09-27T03:17:38;10.50;99.90
29551;DHT22;16488;52.396;10.696;2022-09-27T03:20:04;10.50;99.90
29551;DHT22;16488;52.396;10.696;2022-09-27T03:22:30;10.50;99.90
29551;DHT22;16488;52.396;10.696;2022-09-27T03:24:55;10.50;99.90
29551;DHT22;16488;52.396;10.696;2022-09-27T03:29:47;10.60;99.90
29551;DHT22;16488;52.396;10.696;2022-09-27T03:37:04;10.50;99.90
29551;DHT22;16488;52.396;10.696;2022-09-27T07:34:22;10.50;99.90
29551;DHT22;16488;52.396;10.696;2022-09-27T07:36:48;10.30;99.90
29551;DHT22;16488;52.396;10.696;2022-09-27T07:39:13;10.30;99.90
29551;DHT22;16488;52.396;10.696;2022-09-27T07:41:41;10.40;99.90
29551;DHT22;16488;52.396;10.696;2022-09-27T07:44:06;10.30;99.90
29551;DHT22;16488;52.396;10.696;2022-09-27T07:46:32;10.40;99.90
29551;DHT22;16488;52.396;10.696;2022-09-27T07:48:58;10.50;99.90
29551;DHT22;16488;52.396;10.696;2022-09-27T07:51:24;10.40;99.90
29551;DHT22;16488;52.396;10.696;2022-09-27T07:53:49;10.50;99.90
29551;DHT22;16488;52.396;10.696;2022-09-27T07:56:15;10.40;99.90
29551;DHT22;16488;52.396;10.696;2022-09-27T07:58:40;10.40;99.90
29551;DHT22;16488;52.396;10.696;2022-09-27T08:01:07;10.40;99.90
29551;DHT22;16488;52.396;10.696;2022-09-27T08:03:32;10.40;99.90
29551;DHT22;16488;52.396;10.696;2022-09-27T08:06:00;10.50;99.90
29551;DHT22;16488;52.396;10.696;2022-09-27T08:08:26;10.40;99.90
29551;DHT22;16488;52.396;10.696;2022-09-27T08:10:52;10.40;99.90
29551;DHT22;16488;52.396;10.696;2022-09-27T08:13:18;10.50;99.90
29551;DHT22;16488;52.396;10.696;2022-09-27T08:15:46;10.50;99.90
29551;DHT22;16488;52.396;10.696;2022-09-27T08:18:13;10.60;99.90
29551;DHT22;16488;52.396;10.696;2022-09-27T08:20:38;10.70;99.90
29551;DHT22;16488;52.396;10.696;2022-09-27T08:23:04;10.80;99.90
29551;DHT22;16488;52.396;10.696;2022-09-27T08:25:30;10.80;99.90
29551;DHT22;16488;52.396;10.696;2022-09-27T08:27:56;10.70;99.90
29551;DHT22;16488;52.396;10.696;2022-09-27T08:30:21;10.80;99.90
29551;DHT22;16488;52.396;10.696;2022-09-27T08:32:47;10.70;99.90
29551;DHT22;16488;52.396;10.696;2022-09-27T08:35:12;10.70;99.90
29551;DHT22;16488;52.396;10.696;2022-09-27T08:37:40;10.70;99.90
29551;DHT22;16488;52.396;10.696;2022-09-27T08:40:05;10.70;99.90
29551;DHT22;16488;52.396;10.696;2022-09-27T08:47:48;10.70;99.90
29551;DHT22;16488;52.396;10.696;2022-09-27T08:50:19;10.70;99.90
29551;DHT22;16488;52.396;10.696;2022-09-27T08:52:54;10.70;99.90
29551;DHT22;16488;52.396;10.696;2022-09-27T08:58:26;10.80;99.90
29551;DHT22;16488;52.396;10.696;2022-09-27T09:00:50;10.80;99.90
29551;DHT22;16488;52.396;10.696;2022-09-27T09:03:20;10.90;99.90
29551;DHT22;16488;52.396;10.696;2022-09-27T09:05:51;10.90;99.90
29551;DHT22;16488;52.396;10.696;2022-09-27T09:11:08;10.90;99.90
29551;DHT22;16488;52.396;10.696;2022-09-27T09:14:09;10.90;99.90
29551;DHT22;16488;52.396;10.696;2022-09-27T09:19:46;11.00;99.90
29551;DHT22;16488;52.396;10.696;2022-09-27T09:27:04;10.60;99.90
29551;DHT22;16488;52.396;10.696;2022-09-27T09:39:43;10.40;99.90
29551;DHT22;16488;52.396;10.696;2022-09-27T09:47:03;10.30;99.90
29551;DHT22;16488;52.396;10.696;2022-09-27T09:49:41;10.30;99.90
29551;DHT22;16488;52.396;10.696;2022-09-27T09:52:12;10.20;99.90
29551;DHT22;16488;52.396;10.696;2022-09-27T09:54:43;10.30;99.90
29551;DHT22;16488;52.396;10.696;2022-09-27T09:59:41;10.30;99.90
29551;DHT22;16488;52.396;10.696;2022-09-27T10:02:24;10.40;99.90
29551;DHT22;16488;52.396;10.696;2022-09-27T10:04:51;10.40;99.90
29551;DHT22;16488;52.396;10.696;2022-09-27T10:07:18;10.50;99.90
29551;DHT22;16488;52.396;10.696;2022-09-27T10:09:44;10.60;99.90
29551;DHT22;16488;52.396;10.696;2022-09-27T10:12:10;10.70;99.90
29551;DHT22;16488;52.396;10.696;2022-09-27T10:14:35;10.70;99.90
29551;DHT22;16488;52.396;10.696;2022-09-27T10:17:02;10.80;99.90
29551;DHT22;16488;52.396;10.696;2022-09-27T10:19:32;10.80;99.90
29551;DHT22;16488;52.396;10.696;2022-09-27T10:22:42;10.90;99.90
29551;DHT22;16488;52.396;10.696;2022-09-27T10:24:55;11.00;99.90
29551;DHT22;16488;52.396;10.696;2022-09-27T10:27:21;11.00;99.90
29551;DHT22;16488;52.396;10.696;2022-09-27T10:29:48;11.10;99.90
29551;DHT22;16488;52.396;10.696;2022-09-27T10:32:21;11.10;99.90
29551;DHT22;16488;52.396;10.696;2022-09-27T10:34:48;11.10;99.90
29551;DHT22;16488;52.396;10.696;2022-09-27T10:37:21;11.20;99.90
29551;DHT22;16488;52.396;10.696;2022-09-27T10:39:47;11.20;99.90
29551;DHT22;16488;52.396;10.696;2022-09-27T10:42:22;11.30;99.90
29551;DHT22;16488;52.396;10.696;2022-09-27T10:44:54;11.40;99.90
29551;DHT22;16488;52.396;10.696;2022-09-27T10:47:21;11.40;99.90
29551;DHT22;16488;52.396;10.696;2022-09-27T10:49:48;11.40;99.90
29551;DHT22;16488;52.396;10.696;2022-09-27T10:52:22;11.50;99.90
29551;DHT22;16488;52.396;10.696;2022-09-27T10:54:55;11.70;99.90
29551;DHT22;16488;52.396;10.696;2022-09-27T10:57:22;11.90;99.90
29551;DHT22;16488;52.396;10.696;2022-09-27T10:59:52;12.00;99.90
29551;DHT22;16488;52.396;10.696;2022-09-27T11:02:20;12.00;99.90
29551;DHT22;16488;52.396;10.696;2022-09-27T11:07:26;11.70;99.90
29551;DHT22;16488;52.396;10.696;2022-09-27T11:09:53;11.60;99.90
29551;DHT22;16488;52.396;10.696;2022-09-27T11:12:19;11.60;99.90
29551;DHT22;16488;52.396;10.696;2022-09-27T11:17:20;11.50;99.90
29551;DHT22;16488;52.396;10.696;2022-09-27T11:40:38;12.30;99.90
29551;DHT22;16488;52.396;10.696;2022-09-27T11:46:09;12.50;99.90
29551;DHT22;16488;52.396;10.696;2022-09-27T11:48:41;12.70;99.90
29551;DHT22;16488;52.396;10.696;2022-09-27T11:51:17;12.70;99.90
29551;DHT22;16488;52.396;10.696;2022-09-27T11:53:54;12.40;99.90
29551;DHT22;16488;52.396;10.696;2022-09-27T12:01:32;12.00;99.90
29551;DHT22;16488;52.396;10.696;2022-09-27T12:14:01;11.70;99.90
29551;DHT22;16488;52.396;10.696;2022-09-27T12:16:28;11.70;99.90
29551;DHT22;16488;52.396;10.696;2022-09-27T12:18:54;11.70;99.90
29551;DHT22;16488;52.396;10.696;2022-09-27T12:21:20;11.70;99.90
29551;DHT22;16488;52.396;10.696;2022-09-27T12:24:34;12.20;99.90
29551;DHT22;16488;52.396;10.696;2022-09-27T12:27:08;13.30;99.90
29551;DHT22;16488;52.396;10.696;2022-09-27T12:29:37;13.10;99.90
29551;DHT22;16488;52.396;10.696;2022-09-27T12:32:16;13.00;99.90
29551;DHT22;16488;52.396;10.696;2022-09-27T12:34:48;13.00;99.90
29551;DHT22;16488;52.396;10.696;2022-09-27T12:37:30;13.00;99.90
29551;DHT22;16488;52.396;10.696;2022-09-27T12:42:51;12.80;99.90
29551;DHT22;16488;52.396;10.696;2022-09-27T12:46:23;12.60;99.90
29551;DHT22;16488;52.396;10.696;2022-09-27T12:51:06;12.50;99.90
29551;DHT22;16488;52.396;10.696;2022-09-27T12:56:46;12.20;99.90
29551;DHT22;16488;52.396;10.696;2022-09-27T13:03:02;11.90;99.90
29551;DHT22;16488;52.396;10.696;2022-09-27T13:08:15;11.40;99.90
29551;DHT22;16488;52.396;10.696;2022-09-27T13:13:48;11.10;99.90
29551;DHT22;16488;52.396;10.696;2022-09-27T13:16:13;11.10;99.90
29551;DHT22;16488;52.396;10.696;2022-09-27T13:18:51;11.10;99.90
29551;DHT22;16488;52.396;10.696;2022-09-27T13:27:33;11.10;99.90
29551;DHT22;16488;52.396;10.696;2022-09-27T13:32:38;11.20;99.90
29551;DHT22;16488;52.396;10.696;2022-09-27T13:35:24;11.10;99.90
29551;DHT22;16488;52.396;10.696;2022-09-27T13:37:57;11.10;99.90
29551;DHT22;16488;52.396;10.696;2022-09-27T13:40:37;11.10;99.90
29551;DHT22;16488;52.396;10.696;2022-09-27T13:45:54;11.10;99.90
29551;DHT22;16488;52.396;10.696;2022-09-27T13:48:23;11.20;99.90
29551;DHT22;16488;52.396;10.696;2022-09-27T13:55:55;11.20;99.90
29551;DHT22;16488;52.396;10.696;2022-09-27T13:58:28;11.20;99.90
29551;DHT22;16488;52.396;10.696;2022-09-27T14:00:58;11.00;99.90
29551;DHT22;16488;52.396;10.696;2022-09-27T14:03:30;11.00;99.90
29551;DHT22;16488;52.396;10.696;2022-09-27T14:06:02;10.90;99.90
29551;DHT22;16488;52.396;10.696;2022-09-27T14:08:38;10.90;99.90
29551;DHT22;16488;52.396;10.696;2022-09-27T14:11:12;11.00;99.90
29551;DHT22;16488;52.396;10.696;2022-09-27T14:13:40;11.00;99.90
29551;DHT22;16488;52.396;10.696;2022-09-27T14:16:07;11.10;99.90
29551;DHT22;16488;52.396;10.696;2022-09-27T14:18:43;11.10;99.90
29551;DHT22;16488;52.396;10.696;2022-09-27T14:24:50;11.30;99.90
29551;DHT22;16488;52.396;10.696;2022-09-27T14:29:50;11.50;99.90
29551;DHT22;16488;52.396;10.696;2022-09-27T14:32:20;11.50;99.90
29551;DHT22;16488;52.396;10.696;2022-09-27T14:35:22;11.60;99.90
29551;DHT22;16488;52.396;10.696;2022-09-27T14:38:09;11.60;99.90
29551;DHT22;16488;52.396;10.696;2022-09-27T14:43:24;11.60;99.90
29551;DHT22;16488;52.396;10.696;2022-09-27T14:45:52;11.80;99.90
29551;DHT22;16488;52.396;10.696;2022-09-27T14:48:43;11.90;99.90
29551;DHT22;16488;52.396;10.696;2022-09-27T14:53:57;11.60;99.90
29551;DHT22;16488;52.396;10.696;2022-09-27T14:56:30;11.40;99.90
29551;DHT22;16488;52.396;10.696;2022-09-27T14:59:27;11.20;99.90
29551;DHT22;16488;52.396;10.696;2022-09-27T15:01:58;10.90;99.90
29551;DHT22;16488;52.396;10.696;2022-09-27T15:04:29;10.90;99.90
29551;DHT22;16488;52.396;10.696;2022-09-27T15:06:56;10.80;99.90
29551;DHT22;16488;52.396;10.696;2022-09-27T15:09:22;10.70;99.90
29551;DHT22;16488;52.396;10.696;2022-09-27T15:11:52;10.70;99.90
29551;DHT22;16488;52.396;10.696;2022-09-27T15:14:19;10.60;99.90
29551;DHT22;16488;52.396;10.696;2022-09-27T15:16:47;10.60;99.90
29551;DHT22;16488;52.396;10.696;2022-09-27T15:19:23;10.60;99.90
29551;DHT22;16488;52.396;10.696;2022-09-27T15:21:49;10.70;99.90
29551;DHT22;16488;52.396;10.696;2022-09-27T15:24:42;10.70;99.90
29551;DHT22;16488;52.396;10.696;2022-09-27T15:27:21;10.80;99.90
29551;DHT22;16488;52.396;10.696;2022-09-27T15:29:50;10.90;99.90
29551;DHT22;16488;52.396;10.696;2022-09-27T15:32:18;11.10;99.90
29551;DHT22;16488;52.396;10.696;2022-09-27T15:34:44;11.10;99.90
29551;DHT22;16488;52.396;10.696;2022-09-27T15:37:34;10.90;99.90
29551;DHT22;16488;52.396;10.696;2022-09-27T15:42:55;10.90;99.90
29551;DHT22;16488;52.396;10.696;2022-09-27T15:45:49;10.80;99.90
29551;DHT22;16488;52.396;10.696;2022-09-27T15:48:17;10.70;99.90
29551;DHT22;16488;52.396;10.696;2022-09-27T15:50:42;10.80;99.90
29551;DHT22;16488;52.396;10.696;2022-09-27T15:53:09;10.80;99.90
29551;DHT22;16488;52.396;10.696;2022-09-27T15:55:40;10.80;99.90
29551;DHT22;16488;52.396;10.696;2022-09-27T15:58:12;10.80;99.90
29551;DHT22;16488;52.396;10.696;2022-09-27T16:00:50;10.70;99.90
29551;DHT22;16488;52.396;10.696;2022-09-27T16:03:16;10.60;99.90
29551;DHT22;16488;52.396;10.696;2022-09-27T16:05:42;10.40;99.90
29551;DHT22;16488;52.396;10.696;2022-09-27T16:08:09;10.40;99.90
29551;DHT22;16488;52.396;10.696;2022-09-27T16:10:38;10.40;99.90
29551;DHT22;16488;52.396;10.696;2022-09-27T16:13:03;10.20;99.90
29551;DHT22;16488;52.396;10.696;2022-09-27T16:15:29;10.10;99.90
29551;DHT22;16488;52.396;10.696;2022-09-27T16:17:55;10.00;99.90
29551;DHT22;16488;52.396;10.696;2022-09-27T16:20:24;10.00;99.90
29551;DHT22;16488;52.396;10.696;2022-09-27T16:22:51;10.00;99.90
29551;DHT22;16488;52.396;10.696;2022-09-27T16:25:17;9.90;99.90
29551;DHT22;16488;52.396;10.696;2022-09-27T16:27:43;9.90;99.90
29551;DHT22;16488;52.396;10.696;2022-09-27T16:30:09;9.90;99.90
29551;DHT22;16488;52.396;10.696;2022-09-27T16:32:46;9.90;99.90
29551;DHT22;16488;52.396;10.696;2022-09-27T16:35:13;9.90;99.90
29551;DHT22;16488;52.396;10.696;2022-09-27T16:37:39;9.90;99.90
29551;DHT22;16488;52.396;10.696;2022-09-27T16:40:05;9.90;99.90
29551;DHT22;16488;52.396;10.696;2022-09-27T16:42:33;10.00;99.90
29551;DHT22;16488;52.396;10.696;2022-09-27T16:44:58;9.90;99.90
29551;DHT22;16488;52.396;10.696;2022-09-27T16:47:28;9.90;99.90
29551;DHT22;16488;52.396;10.696;2022-09-27T16:49:54;9.90;99.90
29551;DHT22;16488;52.396;10.696;2022-09-27T16:52:38;9.90;99.90
29551;DHT22;16488;52.396;10.696;2022-09-27T16:55:05;9.90;99.90
29551;DHT22;16488;52.396;10.696;2022-09-27T16:57:32;9.70;99.90
29551;DHT22;16488;52.396;10.696;2022-09-27T16:59:59;9.70;99.90
29551;DHT22;16488;52.396;10.696;2022-09-27T17:02:25;9.60;99.90
29551;DHT22;16488;52.396;10.696;2022-09-27T17:04:51;9.70;99.90
29551;DHT22;16488;52.396;10.696;2022-09-27T17:07:18;9.60;99.90
29551;DHT22;16488;52.396;10.696;2022-09-27T17:09:43;9.50;99.90
29551;DHT22;16488;52.396;10.696;2022-09-27T17:12:09;9.50;99.90
29551;DHT22;16488;52.396;10.696;2022-09-27T17:14:35;9.40;99.90
29551;DHT22;16488;52.396;10.696;2022-09-27T17:17:01;9.40;99.90
29551;DHT22;16488;52.396;10.696;2022-09-27T17:19:26;9.30;99.90
29551;DHT22;16488;52.396;10.696;2022-09-27T17:21:52;9.30;99.90
29551;DHT22;16488;52.396;10.696;2022-09-27T17:24:20;9.30;99.90
29551;DHT22;16488;52.396;10.696;2022-09-27T17:26:45;9.20;99.90
29551;DHT22;16488;52.396;10.696;2022-09-27T17:29:12;9.20;99.90
29551;DHT22;16488;52.396;10.696;2022-09-27T17:31:38;9.20;99.90
29551;DHT22;16488;52.396;10.696;2022-09-27T17:34:05;9.20;99.90
29551;DHT22;16488;52.396;10.696;2022-09-27T17:36:32;9.20;99.90
29551;DHT22;16488;52.396;10.696;2022-09-27T17:39:00;9.20;99.90
29551;DHT22;16488;52.396;10.696;2022-09-27T17:41:26;9.10;99.90
29551;DHT22;16488;52.396;10.696;2022-09-27T17:43:55;9.10;99.90
29551;DHT22;16488;52.396;10.696;2022-09-27T17:46:24;9.10;99.90
29551;DHT22;16488;52.396;10.696;2022-09-27T17:48:50;9.10;99.90
29551;DHT22;16488;52.396;10.696;2022-09-27T17:51:36;9.10;99.90
29551;DHT22;16488;52.396;10.696;2022-09-27T17:54:02;9.10;99.90
29551;DHT22;16488;52.396;10.696;2022-09-27T17:56:29;9.10;99.90
29551;DHT22;16488;52.396;10.696;2022-09-27T17:58:57;9.10;99.90
29551;DHT22;16488;52.396;10.696;2022-09-27T18:01:24;9.10;99.90
29551;DHT22;16488;52.396;10.696;2022-09-27T18:03:57;9.10;99.90
29551;DHT22;16488;52.396;10.696;2022-09-27T18:06:24;9.10;99.90
29551;DHT22;16488;52.396;10.696;2022-09-27T18:08:52;9.00;99.90
29551;DHT22;16488;52.396;10.696;2022-09-27T18:11:23;9.00;99.90
29551;DHT22;16488;52.396;10.696;2022-09-27T18:13:55;9.00;99.90
29551;DHT22;16488;52.396;10.696;2022-09-27T18:16:24;9.00;99.90
29551;DHT22;16488;52.396;10.696;2022-09-27T18:18:54;9.00;99.90
29551;DHT22;16488;52.396;10.696;2022-09-27T18:21:20;9.00;99.90
29551;DHT22;16488;52.396;10.696;2022-09-27T18:23:49;9.00;99.90
29551;DHT22;16488;52.396;10.696;2022-09-27T18:26:17;9.00;99.90
29551;DHT22;16488;52.396;10.696;2022-09-27T18:28:44;8.90;99.90
29551;DHT22;16488;52.396;10.696;2022-09-27T18:31:14;9.00;99.90
29551;DHT22;16488;52.396;10.696;2022-09-27T18:33:40;9.00;99.90
29551;DHT22;16488;52.396;10.696;2022-09-27T18:36:12;9.00;99.90
29551;DHT22;16488;52.396;10.696;2022-09-27T18:38:38;9.00;99.90
29551;DHT22;16488;52.396;10.696;2022-09-27T18:41:09;9.10;99.90
29551;DHT22;16488;52.396;10.696;2022-09-27T18:43:35;9.10;99.90
29551;DHT22;16488;52.396;10.696;2022-09-27T18:46:06;9.10;99.90
29551;DHT22;16488;52.396;10.696;2022-09-27T18:48:33;9.00;99.90
29551;DHT22;16488;52.396;10.696;2022-09-27T18:51:08;9.10;99.90
29551;DHT22;16488;52.396;10.696;2022-09-27T18:53:35;9.10;99.90
29551;DHT22;16488;52.396;10.696;2022-09-27T18:56:05;9.10;99.90
29551;DHT22;16488;52.396;10.696;2022-09-27T18:58:33;9.10;99.90
29551;DHT22;16488;52.396;10.696;2022-09-27T19:01:03;9.10;99.90
29551;DHT22;16488;52.396;10.696;2022-09-27T19:03:29;9.20;99.90
29551;DHT22;16488;52.396;10.696;2022-09-27T19:06:05;9.20;99.90
29551;DHT22;16488;52.396;10.696;2022-09-27T19:08:31;9.20;99.90
29551;DHT22;16488;52.396;10.696;2022-09-27T19:11:11;9.20;99.90
29551;DHT22;16488;52.396;10.696;2022-09-27T19:13:37;9.20;99.90
29551;DHT22;16488;52.396;10.696;2022-09-27T19:16:04;9.20;99.90
29551;DHT22;16488;52.396;10.696;2022-09-27T19:18:30;9.20;99.90
29551;DHT22;16488;52.396;10.696;2022-09-27T19:21:05;9.20;99.90
29551;DHT22;16488;52.396;10.696;2022-09-27T19:23:32;9.20;99.90
29551;DHT22;16488;52.396;10.696;2022-09-27T19:25:59;9.20;99.90
29551;DHT22;16488;52.396;10.696;2022-09-27T19:28:25;9.30;99.90
29551;DHT22;16488;52.396;10.696;2022-09-27T19:30:51;9.20;99.90
29551;DHT22;16488;52.396;10.696;2022-09-27T19:33:17;9.20;99.90
29551;DHT22;16488;52.396;10.696;2022-09-27T19:35:42;9.10;99.90
29551;DHT22;16488;52.396;10.696;2022-09-27T19:38:08;9.10;99.90
29551;DHT22;16488;52.396;10.696;2022-09-27T19:40:34;9.10;99.90
29551;DHT22;16488;52.396;10.696;2022-09-27T19:42:59;9.10;99.90
29551;DHT22;16488;52.396;10.696;2022-09-27T19:45:25;9.10;99.90
29551;DHT22;16488;52.396;10.696;2022-09-27T19:47:50;9.10;99.90
29551;DHT22;16488;52.396;10.696;2022-09-27T19:50:16;9.10;99.90
29551;DHT22;16488;52.396;10.696;2022-09-27T19:52:42;9.10;99.90
29551;DHT22;16488;52.396;10.696;2022-09-27T19:55:08;9.10;99.90
29551;DHT22;16488;52.396;10.696;2022-09-27T19:57:34;9.10;99.90
29551;DHT22;16488;52.396;10.696;2022-09-27T19:59:59;9.10;99.90
29551;DHT22;16488;52.396;10.696;2022-09-27T20:02:25;9.10;99.90
29551;DHT22;16488;52.396;10.696;2022-09-27T20:04:50;9.10;99.90
29551;DHT22;16488;52.396;10.696;2022-09-27T20:07:16;9.10;99.90
29551;DHT22;16488;52.396;10.696;2022-09-27T20:09:42;9.10;99.90
29551;DHT22;16488;52.396;10.696;2022-09-27T20:12:08;9.10;99.90
29551;DHT22;16488;52.396;10.696;2022-09-27T20:14:33;9.10;99.90
29551;DHT22;16488;52.396;10.696;2022-09-27T20:16:59;9.10;99.90
29551;DHT22;16488;52.396;10.696;2022-09-27T20:19:25;9.10;99.90
29551;DHT22;16488;52.396;10.696;2022-09-27T20:21:50;9.10;99.90
29551;DHT22;16488;52.396;10.696;2022-09-27T20:24:16;9.20;99.90
29551;DHT22;16488;52.396;10.696;2022-09-27T20:26:42;9.20;99.90
29551;DHT22;16488;52.396;10.696;2022-09-27T20:29:09;9.20;99.90
29551;DHT22;16488;52.396;10.696;2022-09-27T20:31:38;9.20;99.90
29551;DHT22;16488;52.396;10.696;2022-09-27T20:34:11;9.10;99.90
29551;DHT22;16488;52.396;10.696;2022-09-27T20:36:39;9.10;99.90
29551;DHT22;16488;52.396;10.696;2022-09-27T20:39:10;9.10;99.90
29551;DHT22;16488;52.396;10.696;2022-09-27T20:41:41;9.10;99.90
29551;DHT22;16488;52.396;10.696;2022-09-27T20:44:09;9.10;99.90
29551;DHT22;16488;52.396;10.696;2022-09-27T20:46:36;9.00;99.90
29551;DHT22;16488;52.396;10.696;2022-09-27T20:49:07;9.00;99.90
29551;DHT22;16488;52.396;10.696;2022-09-27T20:51:35;9.00;99.90
29551;DHT22;16488;52.396;10.696;2022-09-27T20:54:02;9.00;99.90
29551;DHT22;16488;52.396;10.696;2022-09-27T20:56:33;9.10;99.90
29551;DHT22;16488;52.396;10.696;2022-09-27T20:59:02;9.10;99.90
29551;DHT22;16488;52.396;10.696;2022-09-27T21:01:29;9.10;99.90
29551;DHT22;16488;52.396;10.696;2022-09-27T21:03:57;9.00;99.90
29551;DHT22;16488;52.396;10.696;2022-09-27T21:06:24;9.00;99.90
29551;DHT22;16488;52.396;10.696;2022-09-27T21:08:51;9.00;99.90
29551;DHT22;16488;52.396;10.696;2022-09-27T21:11:18;9.00;99.90
29551;DHT22;16488;52.396;10.696;2022-09-27T21:13:44;9.00;99.90
29551;DHT22;16488;52.396;10.696;2022-09-27T21:16:21;9.00;99.90
29551;DHT22;16488;52.396;10.696;2022-09-27T21:18:50;9.10;99.90
29551;DHT22;16488;52.396;10.696;2022-09-27T21:21:17;9.10;99.90
29551;DHT22;16488;52.396;10.696;2022-09-27T21:23:44;9.10;99.90
29551;DHT22;16488;52.396;10.696;2022-09-27T21:26:15;9.10;99.90
29551;DHT22;16488;52.396;10.696;2022-09-27T21:28:43;9.10;99.90
29551;DHT22;16488;52.396;10.696;2022-09-27T21:31:13;9.10;99.90
29551;DHT22;16488;52.396;10.696;2022-09-27T21:33:40;9.20;99.90
29551;DHT22;16488;52.396;10.696;2022-09-27T21:36:08;9.10;99.90
29551;DHT22;16488;52.396;10.696;2022-09-27T21:38:34;9.20;99.90
29551;DHT22;16488;52.396;10.696;2022-09-27T21:41:03;9.10;99.90
29551;DHT22;16488;52.396;10.696;2022-09-27T21:43:31;9.20;99.90
29551;DHT22;16488;52.396;10.696;2022-09-27T21:46:10;9.20;99.90
29551;DHT22;16488;52.396;10.696;2022-09-27T21:48:38;9.20;99.90
29551;DHT22;16488;52.396;10.696;2022-09-27T21:53:35;9.20;99.90
29551;DHT22;16488;52.396;10.696;2022-09-27T21:56:01;9.20;99.90
29551;DHT22;16488;52.396;10.696;2022-09-27T21:58:27;9.20;99.90
29551;DHT22;16488;52.396;10.696;2022-09-27T22:00:53;9.20;99.90
29551;DHT22;16488;52.396;10.696;2022-09-27T22:03:19;9.20;99.90
29551;DHT22;16488;52.396;10.696;2022-09-27T22:05:46;9.20;99.90
29551;DHT22;16488;52.396;10.696;2022-09-27T22:08:12;9.20;99.90
29551;DHT22;16488;52.396;10.696;2022-09-27T22:10:38;9.20;99.90
29551;DHT22;16488;52.396;10.696;2022-09-27T22:13:04;9.20;99.90
29551;DHT22;16488;52.396;10.696;2022-09-27T22:15:32;9.20;99.90
29551;DHT22;16488;52.396;10.696;2022-09-27T22:17:58;9.20;99.90
29551;DHT22;16488;52.396;10.696;2022-09-27T22:20:24;9.30;99.90
29551;DHT22;16488;52.396;10.696;2022-09-27T22:22:52;9.30;99.90
29551;DHT22;16488;52.396;10.696;2022-09-27T22:25:17;9.30;99.90
29551;DHT22;16488;52.396;10.696;2022-09-27T22:27:43;9.30;99.90